Latest Weather Observations for Moruya Airport

IDN60901

Issued at 5:05 pm EDT Saturday 1 November 2014 (issued every 10 minutes, with the page automatically refreshed every 10 minutes)

About weather observations | Map of Canberra area stations | Latest observations for Canberra area | Other Formats
Station Details ID: 069148 Name: MORUYA AIRPORT AWS Lat: -35.90 Lon: 150.14 Height: 4.0 m
Data from the previous 72 hours. | See also: Recent months for locations in Aust Capital Territory
Date/Time
EDT
Tmp

°C
App
Tmp
°C
Dew
Point
°C
Rel
Hum
%
Delta-T

°C
Wind Press
QNH
hPa
Press
MSL
hPa
Rain
since
9 am
mm
Dir
 
Spd
km/h
Gust
km/h
Spd
kts
Gust
kts
01/05:00pm 17.9 14.4 15.5 86 1.4 S 28 35 15 19 1001.7 1001.6 0.0
01/04:30pm 18.1 15.0 15.7 86 1.4 SSE 26 37 14 20 1001.0 1000.9 0.0
01/04:00pm 18.4 14.9 15.6 84 1.7 SSE 28 35 15 19 1000.3 1000.2 0.0
01/03:30pm 18.8 15.7 15.7 82 1.8 SSE 26 41 14 22 1000.4 1000.3 0.0
01/03:00pm 18.6 16.1 16.2 86 1.4 S 24 43 13 23 1000.1 1000.0 0.0
01/02:30pm 18.7 13.9 15.6 82 1.8 S 35 56 19 30 999.5 999.4 0.0
01/02:16pm 20.0 11.7 16.0 78 2.4 S 54 72 29 39 999.9 999.8 0.0
01/02:13pm 20.0 10.1 15.2 74 2.8 S 61 72 33 39 999.0 998.9 0.0
01/02:11pm 21.1 15.4 14.3 65 4.0 SSE 37 70 20 38 999.1 999.0 0.0
01/02:10pm 22.1 17.2 13.7 59 4.9 SSE 32 46 17 25 999.1 999.0 0.0
01/02:00pm 28.6 26.9 13.7 40 8.9 NW 15 32 8 17 998.0 997.9 0.0
01/01:30pm 30.5 27.3 14.2 37 9.9 NW 24 43 13 23 997.3 997.2 0.0
01/01:00pm 31.1 28.9 14.3 36 10.3 WNW 19 35 10 19 997.2 997.1 0.0
01/12:30pm 31.5 28.6 15.0 36 10.1 NW 24 37 13 20 997.6 997.5 0.0
01/12:00pm 30.9 27.2 14.9 37 9.9 NW 28 54 15 29 997.9 997.8 0.0
01/11:30am 29.7 25.9 14.7 40 9.1 NW 28 48 15 26 997.9 997.8 0.0
01/11:00am 29.3 26.0 15.1 42 8.7 NNW 26 35 14 19 998.6 998.5 0.0
01/10:30am 29.4 25.9 14.4 40 9.1 NW 26 41 14 22 999.0 998.9 0.0
01/10:00am 29.0 24.5 14.8 42 8.7 NW 32 63 17 34 998.7 998.6 0.0
01/09:30am 28.0 24.1 14.3 43 8.2 NW 28 54 15 29 998.8 998.7 0.0
01/09:23am 28.4 23.0 13.9 41 8.7 NW 35 54 19 29 998.9 998.8 0.0
01/09:00am 28.6 25.2 13.7 40 8.9 WNW 24 41 13 22 999.2 999.1 0.0
01/08:30am 27.6 25.4 14.3 44 8.0 WNW 19 33 10 18 998.7 998.6 0.0
01/08:00am 23.3 24.7 15.4 61 4.8 NNE 2 6 1 3 999.3 999.2 0.0
01/07:30am 18.9 20.6 18.6 98 0.2 NNW 7 11 4 6 999.9 999.8 0.0
01/07:00am 16.7 18.5 16.5 99 0.1 NNW 2 7 1 4 999.8 999.7 0.0
01/06:30am 16.2 17.9 16.2 100 0.0 N 2 7 1 4 1000.0 999.9 0.0
01/06:00am 14.5 15.6 14.5 100 0.0 NNW 2 7 1 4 999.8 999.7 0.0
01/05:30am 14.4 14.5 14.4 100 0.0 N 7 11 4 6 999.9 999.8 0.0
01/05:00am 14.0 13.9 14.0 100 0.0 N 7 13 4 7 999.9 999.8 0.0
01/04:30am 13.1 12.9 13.1 100 0.0 N 6 9 3 5 1000.2 1000.1 0.0
01/04:00am 13.4 13.7 13.4 100 0.0 NW 4 9 2 5 1000.3 1000.2 0.0
01/03:30am 14.1 13.3 14.1 100 0.0 WSW 11 15 6 8 1000.9 1000.8 0.0
01/03:00am 13.8 15.0 13.8 100 0.0 CALM 0 0 0 0 1000.9 1000.8 0.0
01/02:30am 13.9 15.1 13.9 100 0.0 CALM 0 0 0 0 1001.4 1001.3 0.0
01/02:00am 14.6 16.1 14.6 100 0.0 CALM 0 0 0 0 1001.6 1001.5 0.0
01/01:30am 14.7 16.2 14.7 100 0.0 CALM 0 0 0 0 1002.3 1002.2 0.0
01/01:00am 15.1 16.8 15.1 100 0.0 CALM 0 0 0 0 1002.7 1002.6 0.0
01/12:30am 15.6 17.4 15.6 100 0.0 CALM 0 0 0 0 1003.1 1003.0 0.0
01/12:00am 16.2 18.3 16.2 100 0.0 NW 0 0 0 0 1003.4 1003.3 0.0
 
Date/Time
EDT
Tmp

°C
App
Tmp
°C
Dew
Point
°C
Rel
Hum
%
Delta-T

°C
Wind Press
QNH
hPa
Press
MSL
hPa
Rain
since
9 am
mm
Dir
 
Spd
km/h
Gust
km/h
Spd
kts
Gust
kts
31/11:30pm 16.2 18.3 16.2 100 0.0 NW 0 0 0 0 1003.7 1003.6 0.0
31/11:00pm 16.7 19.0 16.7 100 0.0 CALM 0 0 0 0 1004.0 1003.9 0.0
31/10:37pm 17.3 19.8 17.3 100 0.0 CALM 0 0 0 0 1004.1 1004.0 0.0
31/10:35pm 17.4 20.0 17.4 100 0.0 CALM 0 0 0 0 1004.1 1004.0 0.0
31/10:30pm 17.5 20.1 17.5 100 0.0 CALM 0 0 0 0 1004.2 1004.1 0.0
31/10:00pm 17.8 20.1 17.8 100 0.0 W 2 6 1 3 1004.3 1004.2 0.0
31/09:30pm 17.6 20.2 17.6 100 0.0 CALM 0 0 0 0 1004.4 1004.3 0.0
31/09:00pm 17.6 20.2 17.6 100 0.0 CALM 0 0 0 0 1004.5 1004.4 0.0
31/08:56pm 17.4 20.0 17.4 100 0.0 CALM 0 0 0 0 1004.5 1004.4 0.0
31/08:51pm 18.1 21.0 18.1 100 0.0 CALM 0 0 0 0 1004.5 1004.4 0.0
31/08:30pm 18.3 21.2 18.1 99 0.1 CALM 0 4 0 2 1004.5 1004.4 0.0
31/08:13pm 18.9 21.9 18.4 97 0.3 CALM 0 0 0 0 1004.5 1004.4 0.0
31/08:09pm 19.2 22.3 18.7 97 0.3 CALM 0 0 0 0 1004.5 1004.4 0.0
31/08:00pm 19.3 22.2 18.3 94 0.6 CALM 0 0 0 0 1004.5 1004.4 0.0
31/07:51pm 19.6 22.3 18.6 94 0.6 SW 2 9 1 5 1004.5 1004.4 0.0
31/07:30pm 20.4 23.7 19.2 93 0.8 CALM 0 0 0 0 1004.5 1004.4 0.0
31/07:00pm 20.9 24.2 19.2 90 1.1 NE 0 7 0 4 1004.4 1004.3 0.0
31/06:30pm 21.3 22.8 18.9 86 1.5 NE 9 13 5 7 1004.5 1004.4 0.0
31/06:00pm 22.1 22.6 19.3 84 1.8 NE 15 19 8 10 1004.7 1004.6 0.0
31/05:30pm 21.6 20.4 19.3 87 1.5 NNE 24 33 13 18 1004.6 1004.5 0.0
31/05:00pm 20.8 20.1 19.5 92 0.8 NNE 22 32 12 17 1004.8 1004.7 0.0
31/04:30pm 21.1 19.5 19.2 89 1.2 NNE 26 35 14 19 1004.8 1004.7 0.0
31/04:00pm 21.7 19.8 19.3 86 1.5 NNE 28 37 15 20 1004.9 1004.8 0.0
31/03:30pm 22.4 20.1 19.4 83 1.9 NNE 30 39 16 21 1005.3 1005.2 0.0
31/03:00pm 22.8 20.6 18.8 78 2.5 NNE 28 39 15 21 1005.7 1005.6 0.0
31/02:30pm 22.3 19.3 18.7 80 2.3 NE 32 39 17 21 1006.1 1006.0 0.0
31/02:00pm 22.1 20.1 18.3 79 2.4 NE 26 39 14 21 1006.7 1006.6 0.0
31/01:30pm 22.2 19.3 18.0 77 2.6 NE 30 37 16 20 1007.2 1007.1 0.0
31/01:00pm 21.4 18.7 17.6 79 2.3 NE 28 35 15 19 1007.7 1007.6 0.0
31/12:30pm 21.5 20.2 18.1 81 2.1 NE 22 28 12 15 1008.5 1008.4 0.0
31/12:00pm 20.9 18.1 17.3 80 2.2 NE 28 32 15 17 1009.2 1009.1 0.0
31/11:30am 20.8 18.6 17.0 79 2.3 NE 24 28 13 15 1010.3 1010.2 0.0
31/11:00am 20.7 19.5 17.1 80 2.2 ENE 19 24 10 13 1011.1 1011.0 0.0
31/10:30am 20.6 19.6 17.6 83 1.8 ENE 19 20 10 11 1011.7 1011.6 0.0
31/10:00am 19.9 19.5 16.3 80 2.2 ENE 13 17 7 9 1012.3 1012.2 0.0
31/09:30am 19.6 19.6 16.3 81 2.0 ENE 11 15 6 8 1012.6 1012.5 0.0
31/09:00am 19.2 19.9 16.1 82 1.8 ENE 7 9 4 5 1012.9 1012.8 0.0
31/08:30am 18.0 19.4 15.4 85 1.5 WNW 2 7 1 4 1013.2 1013.1 0.0
31/08:00am 16.3 16.6 14.5 89 1.0 WSW 6 9 3 5 1013.2 1013.1 0.0
31/07:30am 14.6 15.1 14.1 97 0.3 W 4 9 2 5 1013.1 1013.0 0.0
31/07:00am 13.4 14.5 13.4 100 0.0 CALM 0 0 0 0 1013.0 1012.9 0.0
31/06:30am 12.5 13.3 12.5 100 0.0 CALM 0 0 0 0 1012.8 1012.7 0.0
31/06:17am 12.3 13.0 12.3 100 0.0 CALM 0 0 0 0 1012.7 1012.6 0.0
31/06:00am 12.6 13.4 12.6 100 0.0 CALM 0 0 0 0 1012.6 1012.5 0.0
31/05:30am 12.4 13.2 12.4 100 0.0 CALM 0 0 0 0 1012.5 1012.4 0.0
31/05:14am 11.6 12.1 11.6 100 0.0 CALM 0 0 0 0 1012.5 1012.4 0.0
31/05:00am 12.0 12.6 12.0 100 0.0 CALM 0 4 0 2 1012.4 1012.3 0.0
31/04:59am 12.0 12.6 12.0 100 0.0 CALM 0 6 0 3 1012.4 1012.3 0.0
31/04:41am 12.0 12.2 12.0 100 0.0 W 2 6 1 3 1012.4 1012.3 0.0
31/04:30am 12.3 12.3 12.3 100 0.0 W 4 6 2 3 1012.5 1012.4 0.0
31/04:00am 13.1 14.1 13.1 100 0.0 CALM 0 0 0 0 1012.6 1012.5 0.0
31/03:30am 13.7 14.5 13.7 100 0.0 W 2 6 1 3 1012.9 1012.8 0.0
31/03:00am 14.0 15.3 14.0 100 0.0 CALM 0 6 0 3 1013.1 1013.0 0.0
31/02:30am 14.1 15.4 14.1 100 0.0 CALM 0 0 0 0 1013.4 1013.3 0.0
31/02:00am 14.4 15.8 14.4 100 0.0 CALM 0 4 0 2 1013.7 1013.6 0.0
31/01:30am 14.7 15.1 14.7 100 0.0 W 6 9 3 5 1014.2 1014.1 0.0
31/01:00am 14.5 14.6 14.5 100 0.0 WNW 7 11 4 6 1014.6 1014.5 0.0
31/12:30am 14.6 14.8 14.6 100 0.0 W 7 9 4 5 1014.8 1014.7 0.0
31/12:00am 15.8 16.4 15.8 100 0.0 WSW 7 11 4 6 1014.9 1014.8 0.0
 
Date/Time
EDT
Tmp

°C
App
Tmp
°C
Dew
Point
°C
Rel
Hum
%
Delta-T

°C
Wind Press
QNH
hPa
Press
MSL
hPa
Rain
since
9 am
mm
Dir
 
Spd
km/h
Gust
km/h
Spd
kts
Gust
kts
30/11:30pm 16.5 17.3 16.3 99 0.1 WSW 7 11 4 6 1015.0 1014.9 0.0
30/11:09pm 17.0 17.6 16.7 98 0.2 WSW 9 13 5 7 1015.1 1015.0 0.0
30/11:00pm 17.3 18.4 17.0 98 0.2 W 7 11 4 6 1015.1 1015.0 0.0
30/10:53pm 17.4 18.5 17.1 98 0.2 WSW 7 11 4 6 1015.2 1015.1 0.0
30/10:30pm 17.4 18.1 17.1 98 0.2 SW 9 15 5 8 1015.2 1015.1 0.0
30/10:00pm 17.6 18.0 17.3 98 0.2 S 11 15 6 8 1015.1 1015.0 0.0
30/09:30pm 17.9 17.7 17.7 99 0.1 S 15 20 8 11 1015.0 1014.9 0.0
30/09:00pm 18.0 18.0 18.0 100 0.0 S 15 17 8 9 1014.5 1014.4 0.0
30/08:30pm 18.2 18.5 17.9 98 0.2 S 13 15 7 8 1014.0 1013.9 0.0
30/08:00pm 18.0 18.1 17.4 96 0.4 S 13 17 7 9 1013.6 1013.5 0.0
30/07:30pm 18.7 19.4 16.1 85 1.5 ESE 7 9 4 5 1012.9 1012.8 0.0
30/07:29pm 18.7 19.4 16.1 85 1.5 ESE 7 9 4 5 1012.9 1012.8 0.0
30/07:18pm 19.1 19.6 16.5 85 1.6 E 9 9 5 5 1012.7 1012.6 0.0
30/07:13pm 19.2 19.6 16.4 84 1.7 E 9 9 5 5 1012.6 1012.5 0.0
30/07:02pm 19.7 20.6 16.5 82 1.9 ENE 7 9 4 5 1012.4 1012.3 0.0
30/07:00pm 19.7 20.6 16.5 82 1.9 ENE 7 13 4 7 1012.4 1012.3 0.0
30/06:30pm 20.4 21.2 17.2 82 2.0 ENE 9 11 5 6 1011.8 1011.7 0.0
30/06:00pm 20.7 21.4 17.1 80 2.2 ENE 9 11 5 6 1011.6 1011.5 0.0
30/05:30pm 20.7 21.3 16.9 79 2.3 NNE 9 11 5 6 1011.4 1011.3 0.0
30/05:00pm 20.9 21.6 17.1 79 2.3 NE 9 13 5 7 1011.1 1011.0 0.0
30/04:30pm 20.7 21.1 17.3 81 2.1 ENE 11 15 6 8 1011.0 1010.9 0.0
30/04:00pm 21.1 21.3 17.7 81 2.1 ENE 13 15 7 8 1010.9 1010.8 0.0
30/03:30pm 21.0 21.1 17.4 80 2.2 ENE 13 17 7 9 1010.9 1010.8 0.0
30/03:00pm 21.3 20.2 17.3 78 2.5 NE 19 20 10 11 1010.9 1010.8 0.0
30/02:30pm 20.9 19.4 16.3 75 2.8 NE 19 22 10 12 1011.3 1011.2 0.0
30/02:00pm 20.9 19.5 16.5 76 2.7 NE 19 22 10 12 1011.7 1011.6 0.0
30/01:30pm 20.6 19.2 16.6 78 2.4 ENE 19 20 10 11 1012.1 1012.0 0.0
30/01:00pm 21.1 20.1 16.5 75 2.8 ENE 17 20 9 11 1012.4 1012.3 0.0
30/12:30pm 19.8 18.4 14.4 71 3.1 NE 15 17 8 9 1012.8 1012.7 0.0
30/12:00pm 19.5 18.5 15.6 78 2.3 ENE 15 17 8 9 1013.4 1013.3 0.0
30/11:30am 19.9 19.3 15.7 77 2.5 ENE 13 17 7 9 1013.5 1013.4 0.0
30/11:00am 19.2 19.0 15.7 80 2.1 ENE 11 13 6 7 1013.8 1013.7 0.0
30/10:30am 19.5 19.3 15.6 78 2.3 E 11 15 6 8 1013.9 1013.8 0.0
30/10:00am 19.3 19.7 15.2 77 2.4 ESE 7 11 4 6 1014.3 1014.2 0.0
30/09:30am 17.9 17.8 13.8 77 2.3 SSW 7 11 4 6 1014.4 1014.3 0.0
30/09:00am 16.2 15.5 14.4 89 1.0 SW 11 13 6 7 1014.4 1014.3 0.0
30/08:30am 14.7 14.5 14.7 100 0.0 SW 9 13 5 7 1014.6 1014.5 0.0
30/08:00am 14.5 14.8 14.5 100 0.0 WSW 6 9 3 5 1014.5 1014.4 0.0
30/07:30am 13.0 12.8 13.0 100 0.0 SW 6 9 3 5 1014.4 1014.3 0.0
30/07:00am 11.6 11.0 11.6 100 0.0 WSW 6 9 3 5 1014.3 1014.2 0.0
30/06:50am 11.2 11.6 11.2 100 0.0 CALM 0 6 0 3 1014.3 1014.2 0.0
30/06:30am 10.8 10.7 10.8 100 0.0 WNW 2 6 1 3 1014.2 1014.1 0.0
30/06:23am 10.7 10.2 10.7 100 0.0 WNW 4 7 2 4 1014.1 1014.0 0.0
30/06:16am 10.8 9.9 10.8 100 0.0 W 6 7 3 4 1014.1 1014.0 0.0
30/06:00am 10.8 11.1 10.8 100 0.0 CALM 0 4 0 2 1013.9 1013.8 0.0
30/05:30am 11.2 10.4 11.2 100 0.0 WSW 6 13 3 7 1013.7 1013.6 0.0
30/05:00am 10.4 10.6 10.4 100 0.0 CALM 0 6 0 3 1013.7 1013.6 0.0
30/04:30am 10.7 10.6 10.7 100 0.0 W 2 6 1 3 1013.8 1013.7 0.0
30/04:00am 11.4 10.7 11.4 100 0.0 WSW 6 11 3 6 1014.0 1013.9 0.0
30/03:30am 10.7 10.9 10.7 100 0.0 CALM 0 6 0 3 1014.0 1013.9 0.0
30/03:00am 11.3 10.6 11.3 100 0.0 WNW 6 7 3 4 1014.1 1014.0 0.0
30/02:30am 11.5 12.0 11.5 100 0.0 CALM 0 0 0 0 1014.3 1014.2 0.0
30/02:00am 12.2 12.9 12.2 100 0.0 CALM 0 0 0 0 1014.6 1014.5 0.0
30/01:30am 12.7 13.2 12.7 100 0.0 W 2 7 1 4 1015.1 1015.0 0.0
30/01:00am 13.3 14.3 13.3 100 0.0 CALM 0 0 0 0 1015.4 1015.4 0.0
30/12:30am 13.7 14.9 13.7 100 0.0 CALM 0 0 0 0 1015.7 1015.7 0.0
30/12:00am 14.5 15.9 14.5 100 0.0 CALM 0 0 0 0 1016.0 1016.0 0.0
 
Date/Time
EDT
Tmp

°C
App
Tmp
°C
Dew
Point
°C
Rel
Hum
%
Delta-T

°C
Wind Press
QNH
hPa
Press
MSL
hPa
Rain
since
9 am
mm
Dir
 
Spd
km/h
Gust
km/h
Spd
kts
Gust
kts
29/11:56pm 14.6 16.1 14.6 100 0.0 CALM 0 0 0 0 1016.1 1016.1 0.0
29/11:36pm 15.0 16.6 15.0 100 0.0 CALM 0 0 0 0 1016.2 1016.2 0.0
29/11:30pm 15.1 16.8 15.1 100 0.0 CALM 0 0 0 0 1016.2 1016.2 0.0
29/11:14pm 15.2 16.9 15.2 100 0.0 CALM 0 0 0 0 1016.4 1016.4 0.0
29/11:00pm 15.3 17.0 15.3 100 0.0 CALM 0 0 0 0 1016.4 1016.4 0.0
29/10:30pm 15.3 17.0 15.3 100 0.0 CALM 0 6 0 3 1016.6 1016.6 0.0
29/10:00pm 15.3 15.9 15.3 100 0.0 W 6 7 3 4 1016.7 1016.7 0.0
29/09:59pm 15.3 15.9 15.3 100 0.0 W 6 7 3 4 1016.7 1016.7 0.0
29/09:43pm 15.3 15.9 15.3 100 0.0 W 6 7 3 4 1016.8 1016.8 0.0
29/09:39pm 15.3 15.9 15.3 100 0.0 W 6 7 3 4 1016.8 1016.8 0.0
29/09:30pm 15.3 16.7 15.3 100 0.0 WNW 2 7 1 4 1016.8 1016.8 0.0
29/09:00pm 15.5 17.2 15.3 99 0.1 CALM 0 0 0 0 1016.8 1016.8 0.0
29/08:30pm 15.7 15.7 15.1 96 0.3 N 9 13 5 7 1016.7 1016.7 0.0
29/08:24pm 15.9 15.4 14.9 94 0.6 N 11 15 6 8 1016.6 1016.6 0.0
29/08:00pm 16.6 15.1 14.2 86 1.4 NE 15 17 8 9 1016.5 1016.5 0.0
29/07:30pm 17.2 15.9 13.7 80 2.0 NE 13 20 7 11 1016.3 1016.3 0.0
29/07:00pm 16.9 14.7 12.0 73 2.7 E 15 17 8 9 1016.0 1016.0 0.0
29/06:30pm 17.1 14.7 12.6 75 2.5 ENE 17 20 9 11 1015.8 1015.8 0.0
29/06:00pm 17.3 15.4 13.0 76 2.4 E 15 19 8 10 1015.8 1015.8 0.0
29/05:30pm 17.1 14.6 12.4 74 2.6 ENE 17 20 9 11 1015.5 1015.5 0.0

Latest Capital City Observations: Canberra | Sydney | Melbourne | Brisbane | Adelaide | Perth | Hobart | Darwin

Other Formats:

Comma delimited format used in spreadsheet applications
http://www.bom.gov.au/fwo/IDN60903/IDN60903.95937.axf

JavaScript Object Notation format (JSON) in row-major order
http://www.bom.gov.au/fwo/IDN60903/IDN60903.95937.json